KHUL

Houlton International Airport

Houlton, Maine, USA
METAR KHUL 250453Z AUTO 19006KT 10SM FEW065 BKN110 09/08 A2982 RMK AO2 RAE12 SLP098 P0000 T00940083 401831006
Observed Flight Rules
May-25 @ 04:53 UTC (37 minutes ago) Visual Flight Rules
Wind Visibility Clouds
190° at 6 knots 10 miles
  • Few at 6,500' AGL
  • Broken at 11,000' AGL
Temperatures Readings Precipitation
Current 9°C / 48°F
Dewpoint 8°C / 46°F
Humidity 94%
Altimeter 29.82" Hg
Pressure 1009.8 hPa
Elevation 150
Current Rain 0.005
METAR KHUL 250453Z AUTO 19006KT 10SM FEW065 BKN110 09/08 A2982 RMK AO2 RAE12 SLP098 P0000 T00940083 401831006
Observed Flight Rules
May-25 @ 04:53 UTC
(37 minutes ago)
VFR
Wind Visibility
190° at 6 knots 10 miles
Clouds
  • Few at 6,500' AGL
  • Broken at 11,000' AGL
Temperature Dewpoint
9°C / 48°F 8°C / 46°F
Humidity Altimeter Pressure
94% 29.82" Hg 1009.8 hPa
Current Rain
0.005